Daily Weather Observations for Burdell (Townsville)
For Sunday 24th February 2019

This table is designed for ease of comparison to Bureau of Meteorology recorded weather data.

Station Details Name: BURDELL Lat: -19.24 Lon: 146.69 Height: 8.5 m
Date/Time
EST
Temp
°C
App
Temp
°C
Dew
Point
°C
Rel
Hum
%
Delta-T
°C
Wind Press
QNH
hPa
Press
MSL
hPa
Rain since
9am
mm
Dir  Spd
km/h
Gust
km/h
Spd
kts
Gust
kts
24/11:30pm 25.5 30.2 22.8 85 1.9 SSE 3 5 2 3 1013.2 1013.2 0.0
24/11:00pm 25.6 30.1 22.5 83 2.2 S 5 8 3 4 1013.4 1013.4 0.0
24/10:30pm 25.9 30.3 22.5 82 2.4 SSE 3 5 2 3 1013.4 1013.4 0.0
24/10:00pm 26.1 30.1 22.6 81 2.5 SSE 6 8 3 4 1013.2 1013.2 0.0
24/09:30pm 26.2 29.8 22.7 81 2.5 SE 8 13 4 7 1013.1 1013.1 0.0
24/09:00pm 26.4 29.7 22.9 81 2.5 SE 13 18 7 10 1012.8 1012.8 0.0
24/08:30pm 26.7 30.3 23.4 82 2.4 SE 10 13 5 7 1012.7 1012.7 0.0
24/08:00pm 27.2 31.4 23.7 81 2.5 SE 8 13 4 7 1012.4 1012.4 0.0
24/07:30pm 27.7 31.4 23.9 81 2.8 SE 17 23 9 13 1012.2 1012.2 0.0
24/07:00pm 27.7 32.3 23.5 78 3.0 ESE 6 10 3 6 1011.9 1011.9 0.0
24/06:30pm 27.8 32.4 23.3 77 3.2 E 6 10 3 6 1011.9 1011.9 0.0
24/06:00pm 28.3 31.9 23.3 75 3.6 SE 12 16 6 9 1011.6 1011.6 0.0
24/05:30pm 28.4 32.5 23.1 73 3.8 SE 10 13 5 7 1011.4 1011.4 0.0
24/05:00pm 28.8 32.3 22.9 71 4.2 SE 12 18 6 10 1011.4 1011.4 0.0
24/04:30pm 28.9 32.9 23.3 72 4.0 E 12 16 7 9 1011.2 1011.2 0.0
24/04:00pm 29.1 33.3 23.5 72 4.0 E 15 21 8 11 1011.1 1011.1 0.0
24/03:30pm 30.3 35.5 24.1 70 4.5 NE 16 21 9 11 1011.0 1011.0 0.0
24/03:00pm 31.4 36.9 23.9 65 5.4 E 20 29 11 16 1011.2 1011.2 0.0
24/02:30pm 32.0 38.3 24.4 65 5.6 ENE 17 23 9 13 1011.1 1011.1 0.0
24/02:00pm 31.8 38.1 24.4 66 5.4 ENE 17 26 9 14 1011.1 1011.1 0.0
24/01:30pm 31.6 38.3 25.1 70 4.8 ENE 13 16 7 9 1011.4 1011.4 0.0
24/01:00pm 29.7 35.5 25.1 78 3.4 ESE 9 16 5 9 1011.9 1011.9 0.0
24/12:30pm 28.4 33.1 24.6 80 2.8 ESE 9 16 5 9 1012.3 1012.3 0.0
24/12:00pm 28.1 32.4 24.3 81 2.8 SSE 11 16 6 9 1012.4 1012.4 0.0
24/11:30am 26.5 30.1 24.1 87 1.7 SE 13 18 7 10 1012.8 1012.8 0.0
24/11:00am 25.6 28.0 23.7 91 1.4 SE 19 32 10 17 1013.2 1013.2 0.0
24/10:30am 27.5 31.0 24.0 82 2.5 SE 19 26 10 14 1013.4 1013.4 0.0
24/10:00am 26.3 28.4 23.2 83 2.2 SE 25 34 14 18 1013.5 1013.5 0.0
24/09:30am 25.6 28.0 23.2 87 1.7 SE 23 29 12 16 1013.6 1013.6 0.0
24/09:00am 25.1 27.3 23.0 88 1.5 SE 18 21 10 11 1013.4 1013.4 0.0
24/08:30am 24.9 27.8 23.5 92 1.0 SE 22 39 12 21 1013.2 1013.2 1.3
24/08:00am 24.4 27.5 23.0 92 1.0 SE 13 21 7 11 1012.6 1012.6 1.3
24/07:30am 24.2 28.0 23.0 93 0.9 SE 10 16 5 9 1012.4 1012.4 1.3
24/07:00am 23.9 28.6 22.9 95 0.7 SE 3 5 2 3 1012.2 1012.2 1.3
24/06:30am 23.3 27.6 22.7 97 0.4 SE 5 8 3 4 1012.0 1012.0 1.3
24/06:00am 23.2 27.9 22.5 96 0.5 W 3 8 1 4 1011.4 1011.4 1.0
24/05:30am 23.3 28.0 22.5 95 0.6 SE 4 5 2 3 1011.0 1011.0 1.0
24/05:00am 24.0 27.1 23.0 94 0.7 ENE 12 21 7 11 1011.3 1011.3 0.0
24/04:30am 24.0 26.7 22.6 92 1.0 SE 20 26 11 14 1010.8 1010.8 0.0
24/04:00am 25.0 26.4 23.0 90 1.4 SSE 24 32 13 17 1010.1 1010.1 0.0
24/03:30am 24.9 28.5 23.1 90 1.3 SSW 12 18 6 10 1009.7 1009.7 0.0
24/03:00am 25.7 30.3 23.7 89 1.4 SW 6 8 3 4 1009.5 1009.5 0.0
24/02:30am 26.9 32.5 24.9 89 1.5 ESE 4 8 2 4 1009.5 1009.5 0.0
24/02:00am 26.7 32.7 24.7 89 1.5 NE 2 5 1 3 1009.7 1009.7 0.0
24/01:30am 26.8 32.4 24.6 88 1.6 NE 3 5 2 3 1009.7 1009.7 0.0
24/01:00am 27.1 32.6 24.7 87 1.8 ENE 5 8 3 4 1009.7 1009.7 0.0
24/12:30am 27.4 32.3 24.7 86 2.0 NE 7 16 4 9 1009.8 1009.8 0.0
24/12:00am 27.7 32.9 24.9 85 2.1 NE 8 10 4 6 1009.9 1009.9 0.0
 


NOTE: The apparent temperature specified in the table above is calculated using both the Heat Index and Steadman method. This differs to the Bureau of Meteorology's calculation which uses the Steadman method alone.